Airfield :







YOU CAN JOIN US ON...

 
LOGIN :

Register | Disclaimer

   EN    FR    IT 

 









Legend :    VFR   Marginal VFR   IFR   Intensive IFR   Very Intensive IFR
Visi :
Ceiling :
>= 8 km
>= 3000ft
5 to 8 km
1000 to 3000 ft
1500m to 5 km
500 to 1000 ft
800 to 1500m
200 to 500 ft
< 800m
< 200 ft
Symbols :   Thunderstorms  Fog  Heavy snow  Heavy precipitations  Wind > 20 kt







- Airport Elevation : 488 ft
- IATA code : EEN


KEEN - Dillant Hopkins

CURRENT METAR :
  • 171156Z AUTO 00000KT 10SM BKN060 OVC070 23/21 A2995 RMK AO2 RAE37 SLP142 P0000 60000 T02280206 10228 20194 53003 $

EXPIRED METARs :
  • 171056Z AUTO 00000KT 10SM -RA FEW039 OVC080 21/20 A2994 RMK AO2 RAB47 SLP140 P0000 T02110200 $
  • 170956Z AUTO 00000KT 10SM FEW070 OVC100 20/19 A2994 RMK AO2 SLP140 T02000194 $

TAF N/A
KZBW FIR / North America



MET'MAP, your aeronautical weather chart ! - Copyright ORBIFLY December 2007 - Disclaimer

ORBIFLY MET'MAP TEAM :

Programming & Development : Alexandra Zaïnal
Concept & Development : Baudouin d'Aumeries
Co-Development & Prog : Marc-Olivier Méhu
Technical & hardware support : Manuel Goepfert

Contact : metmap@orbifly.com




SOURCES & CREDITS :

   NOAA